sensor_id;sensor_type;location;lat;lon;timestamp;P1;durP1;ratioP1;P2;durP2;ratioP2
46983;SDS011;34732;52.112;9.366;2023-02-01T09:14:29;11.00;;;2.70;;
46983;SDS011;34732;52.112;9.366;2023-02-01T09:17:55;11.55;;;2.50;;
46983;SDS011;34732;52.112;9.366;2023-02-01T09:21:21;10.50;;;2.38;;
46983;SDS011;34732;52.112;9.366;2023-02-01T09:24:45;6.72;;;2.22;;
46983;SDS011;34732;52.112;9.366;2023-02-01T09:28:08;10.80;;;2.47;;
46983;SDS011;34732;52.112;9.366;2023-02-01T09:31:30;6.45;;;1.85;;
46983;SDS011;34732;52.112;9.366;2023-02-01T09:34:51;10.60;;;2.40;;
46983;SDS011;34732;52.112;9.366;2023-02-01T09:38:13;7.10;;;1.98;;
46983;SDS011;34732;52.112;9.366;2023-02-01T09:41:37;5.90;;;1.80;;
46983;SDS011;34732;52.112;9.366;2023-02-01T09:48:45;5.20;;;1.70;;
46983;SDS011;34732;52.112;9.366;2023-02-01T09:52:12;5.35;;;1.42;;
46983;SDS011;34732;52.112;9.366;2023-02-01T09:55:41;4.22;;;1.33;;
46983;SDS011;34732;52.112;9.366;2023-02-01T10:02:47;6.55;;;1.55;;
46983;SDS011;34732;52.112;9.366;2023-02-01T10:28:00;6.40;;;1.63;;
46983;SDS011;34732;52.112;9.366;2023-02-01T10:31:25;5.00;;;1.75;;
46983;SDS011;34732;52.112;9.366;2023-02-01T10:34:52;5.88;;;1.63;;
46983;SDS011;34732;52.112;9.366;2023-02-01T10:38:27;5.43;;;1.48;;
46983;SDS011;34732;52.112;9.366;2023-02-01T10:41:49;5.25;;;1.33;;
46983;SDS011;34732;52.112;9.366;2023-02-01T10:45:15;5.28;;;1.58;;
46983;SDS011;34732;52.112;9.366;2023-02-01T10:48:44;6.18;;;1.38;;
46983;SDS011;34732;52.112;9.366;2023-02-01T10:52:13;3.85;;;1.27;;
46983;SDS011;34732;52.112;9.366;2023-02-01T10:59:18;6.30;;;1.55;;
46983;SDS011;34732;52.112;9.366;2023-02-01T11:02:41;7.50;;;1.65;;
46983;SDS011;34732;52.112;9.366;2023-02-01T11:06:03;4.50;;;1.20;;
46983;SDS011;34732;52.112;9.366;2023-02-01T11:09:38;4.28;;;1.15;;
46983;SDS011;34732;52.112;9.366;2023-02-01T11:13:03;3.67;;;0.98;;
46983;SDS011;34732;52.112;9.366;2023-02-01T11:16:32;4.40;;;1.33;;
46983;SDS011;34732;52.112;9.366;2023-02-01T11:20:04;3.33;;;1.08;;
46983;SDS011;34732;52.112;9.366;2023-02-01T11:23:36;7.22;;;1.27;;
46983;SDS011;34732;52.112;9.366;2023-02-01T11:30:38;3.08;;;1.30;;
46983;SDS011;34732;52.112;9.366;2023-02-01T11:34:16;1.95;;;1.00;;
46983;SDS011;34732;52.112;9.366;2023-02-01T11:37:45;5.68;;;1.10;;
46983;SDS011;34732;52.112;9.366;2023-02-01T11:41:14;2.50;;;0.98;;
46983;SDS011;34732;52.112;9.366;2023-02-01T11:44:45;5.25;;;1.15;;
46983;SDS011;34732;52.112;9.366;2023-02-01T11:48:10;3.03;;;0.85;;
46983;SDS011;34732;52.112;9.366;2023-02-01T12:20:54;3.28;;;1.00;;
46983;SDS011;34732;52.112;9.366;2023-02-01T12:31:32;3.85;;;1.40;;
46983;SDS011;34732;52.112;9.366;2023-02-01T12:35:18;5.97;;;1.92;;
46983;SDS011;34732;52.112;9.366;2023-02-01T12:42:57;6.22;;;1.40;;
46983;SDS011;34732;52.112;9.366;2023-02-01T12:46:33;8.63;;;1.92;;
46983;SDS011;34732;52.112;9.366;2023-02-01T12:50:17;8.30;;;1.83;;
46983;SDS011;34732;52.112;9.366;2023-02-01T12:54:02;5.65;;;1.35;;
46983;SDS011;34732;52.112;9.366;2023-02-01T12:57:30;5.82;;;1.40;;
46983;SDS011;34732;52.112;9.366;2023-02-01T13:01:37;5.22;;;1.70;;
46983;SDS011;34732;52.112;9.366;2023-02-01T13:08:19;7.15;;;1.75;;
46983;SDS011;34732;52.112;9.366;2023-02-01T13:11:44;5.50;;;1.23;;
46983;SDS011;34732;52.112;9.366;2023-02-01T13:15:41;4.18;;;1.40;;
46983;SDS011;34732;52.112;9.366;2023-02-01T13:19:16;6.47;;;1.38;;
46983;SDS011;34732;52.112;9.366;2023-02-01T13:26:01;3.58;;;1.08;;
46983;SDS011;34732;52.112;9.366;2023-02-01T13:29:23;4.70;;;1.00;;
46983;SDS011;34732;52.112;9.366;2023-02-01T13:43:43;3.70;;;1.27;;
46983;SDS011;34732;52.112;9.366;2023-02-01T13:47:49;3.35;;;0.95;;
46983;SDS011;34732;52.112;9.366;2023-02-01T13:50:53;3.67;;;1.00;;
46983;SDS011;34732;52.112;9.366;2023-02-01T13:54:27;3.95;;;0.85;;
46983;SDS011;34732;52.112;9.366;2023-02-01T13:57:49;4.50;;;1.23;;
46983;SDS011;34732;52.112;9.366;2023-02-01T14:04:47;3.50;;;1.00;;
46983;SDS011;34732;52.112;9.366;2023-02-01T14:08:11;3.72;;;1.00;;
46983;SDS011;34732;52.112;9.366;2023-02-01T14:11:46;3.35;;;1.45;;
46983;SDS011;34732;52.112;9.366;2023-02-01T14:25:45;4.43;;;1.45;;
46983;SDS011;34732;52.112;9.366;2023-02-01T14:32:37;4.68;;;1.52;;
46983;SDS011;34732;52.112;9.366;2023-02-01T14:36:06;4.38;;;1.40;;
46983;SDS011;34732;52.112;9.366;2023-02-01T14:43:07;3.85;;;1.45;;
46983;SDS011;34732;52.112;9.366;2023-02-01T14:50:31;6.78;;;1.67;;
46983;SDS011;34732;52.112;9.366;2023-02-01T14:53:59;4.47;;;1.75;;
46983;SDS011;34732;52.112;9.366;2023-02-01T14:57:24;5.47;;;1.58;;
46983;SDS011;34732;52.112;9.366;2023-02-01T15:00:51;4.03;;;1.65;;
46983;SDS011;34732;52.112;9.366;2023-02-01T15:04:17;4.78;;;1.45;;
46983;SDS011;34732;52.112;9.366;2023-02-01T15:07:43;11.75;;;3.70;;
46983;SDS011;34732;52.112;9.366;2023-02-01T15:11:13;19.52;;;7.50;;
46983;SDS011;34732;52.112;9.366;2023-02-01T15:14:36;15.60;;;7.15;;
46983;SDS011;34732;52.112;9.366;2023-02-01T15:17:59;14.65;;;6.68;;
46983;SDS011;34732;52.112;9.366;2023-02-01T15:21:25;14.13;;;5.70;;
46983;SDS011;34732;52.112;9.366;2023-02-01T15:24:52;14.63;;;6.18;;
46983;SDS011;34732;52.112;9.366;2023-02-01T15:28:17;14.10;;;6.43;;
46983;SDS011;34732;52.112;9.366;2023-02-01T15:31:46;12.77;;;6.10;;
46983;SDS011;34732;52.112;9.366;2023-02-01T15:39:17;13.90;;;5.63;;
46983;SDS011;34732;52.112;9.366;2023-02-01T15:42:56;12.20;;;4.68;;
46983;SDS011;34732;52.112;9.366;2023-02-01T15:49:56;18.67;;;6.60;;
46983;SDS011;34732;52.112;9.366;2023-02-01T15:53:22;12.60;;;6.32;;
46983;SDS011;34732;52.112;9.366;2023-02-01T15:56:49;14.23;;;6.65;;
46983;SDS011;34732;52.112;9.366;2023-02-01T16:00:22;14.77;;;5.75;;
46983;SDS011;34732;52.112;9.366;2023-02-01T16:04:10;14.93;;;6.22;;
46983;SDS011;34732;52.112;9.366;2023-02-01T16:07:33;12.90;;;5.10;;
46983;SDS011;34732;52.112;9.366;2023-02-01T16:11:14;13.80;;;5.72;;
46983;SDS011;34732;52.112;9.366;2023-02-01T16:14:53;13.60;;;5.85;;
46983;SDS011;34732;52.112;9.366;2023-02-01T16:18:17;14.20;;;4.65;;
46983;SDS011;34732;52.112;9.366;2023-02-01T16:21:43;11.27;;;5.07;;
46983;SDS011;34732;52.112;9.366;2023-02-01T16:25:09;10.02;;;4.82;;
46983;SDS011;34732;52.112;9.366;2023-02-01T16:28:33;9.88;;;4.28;;
46983;SDS011;34732;52.112;9.366;2023-02-01T16:31:57;13.27;;;4.43;;
46983;SDS011;34732;52.112;9.366;2023-02-01T16:35:28;13.25;;;4.38;;
46983;SDS011;34732;52.112;9.366;2023-02-01T16:38:56;9.73;;;3.92;;
46983;SDS011;34732;52.112;9.366;2023-02-01T16:42:22;14.68;;;4.45;;
46983;SDS011;34732;52.112;9.366;2023-02-01T16:45:54;17.40;;;4.88;;
46983;SDS011;34732;52.112;9.366;2023-02-01T16:49:19;13.15;;;4.45;;
46983;SDS011;34732;52.112;9.366;2023-02-01T16:52:46;8.05;;;4.03;;
46983;SDS011;34732;52.112;9.366;2023-02-01T16:56:12;9.50;;;3.75;;
46983;SDS011;34732;52.112;9.366;2023-02-01T16:59:38;7.93;;;3.55;;
46983;SDS011;34732;52.112;9.366;2023-02-01T17:03:04;8.88;;;3.88;;
46983;SDS011;34732;52.112;9.366;2023-02-01T17:06:30;7.63;;;3.10;;
46983;SDS011;34732;52.112;9.366;2023-02-01T17:09:57;8.15;;;3.38;;
46983;SDS011;34732;52.112;9.366;2023-02-01T17:13:21;9.05;;;3.38;;
46983;SDS011;34732;52.112;9.366;2023-02-01T17:16:47;6.63;;;2.90;;
46983;SDS011;34732;52.112;9.366;2023-02-01T17:20:18;8.23;;;3.17;;
46983;SDS011;34732;52.112;9.366;2023-02-01T17:23:48;8.57;;;2.92;;
46983;SDS011;34732;52.112;9.366;2023-02-01T17:27:12;8.85;;;3.17;;
46983;SDS011;34732;52.112;9.366;2023-02-01T17:30:48;7.10;;;3.07;;
46983;SDS011;34732;52.112;9.366;2023-02-01T17:34:15;6.28;;;2.70;;
46983;SDS011;34732;52.112;9.366;2023-02-01T17:37:38;9.32;;;3.10;;
46983;SDS011;34732;52.112;9.366;2023-02-01T17:41:10;6.87;;;3.07;;
46983;SDS011;34732;52.112;9.366;2023-02-01T17:44:34;6.95;;;2.90;;
46983;SDS011;34732;52.112;9.366;2023-02-01T17:47:57;5.95;;;2.97;;
46983;SDS011;34732;52.112;9.366;2023-02-01T17:51:24;5.70;;;2.30;;
46983;SDS011;34732;52.112;9.366;2023-02-01T17:54:47;6.25;;;2.80;;
46983;SDS011;34732;52.112;9.366;2023-02-01T17:58:12;5.47;;;2.63;;
46983;SDS011;34732;52.112;9.366;2023-02-01T18:01:37;4.63;;;2.53;;
46983;SDS011;34732;52.112;9.366;2023-02-01T18:05:08;5.68;;;2.38;;
46983;SDS011;34732;52.112;9.366;2023-02-01T18:08:47;8.40;;;2.97;;
46983;SDS011;34732;52.112;9.366;2023-02-01T18:12:13;6.25;;;2.42;;
46983;SDS011;34732;52.112;9.366;2023-02-01T18:15:41;4.28;;;2.13;;
46983;SDS011;34732;52.112;9.366;2023-02-01T18:19:07;5.75;;;2.15;;
46983;SDS011;34732;52.112;9.366;2023-02-01T18:22:30;5.53;;;2.05;;
46983;SDS011;34732;52.112;9.366;2023-02-01T18:25:54;8.18;;;2.20;;
46983;SDS011;34732;52.112;9.366;2023-02-01T18:29:17;5.72;;;2.38;;
46983;SDS011;34732;52.112;9.366;2023-02-01T18:36:41;3.47;;;2.10;;
46983;SDS011;34732;52.112;9.366;2023-02-01T18:40:04;10.23;;;2.47;;
46983;SDS011;34732;52.112;9.366;2023-02-01T18:43:26;3.72;;;1.42;;
46983;SDS011;34732;52.112;9.366;2023-02-01T18:46:53;5.32;;;2.25;;
46983;SDS011;34732;52.112;9.366;2023-02-01T18:50:17;4.53;;;2.28;;
46983;SDS011;34732;52.112;9.366;2023-02-01T18:53:38;3.97;;;1.80;;
46983;SDS011;34732;52.112;9.366;2023-02-01T18:57:02;4.78;;;1.65;;
46983;SDS011;34732;52.112;9.366;2023-02-01T19:00:23;5.90;;;2.40;;
46983;SDS011;34732;52.112;9.366;2023-02-01T19:03:45;6.15;;;2.00;;
46983;SDS011;34732;52.112;9.366;2023-02-01T19:07:12;4.13;;;2.20;;
46983;SDS011;34732;52.112;9.366;2023-02-01T19:10:35;6.10;;;2.15;;
46983;SDS011;34732;52.112;9.366;2023-02-01T19:14:05;10.57;;;2.85;;
46983;SDS011;34732;52.112;9.366;2023-02-01T19:17:29;11.27;;;2.70;;
46983;SDS011;34732;52.112;9.366;2023-02-01T19:21:02;9.77;;;3.05;;
46983;SDS011;34732;52.112;9.366;2023-02-01T19:24:27;6.35;;;2.47;;
46983;SDS011;34732;52.112;9.366;2023-02-01T19:27:51;6.28;;;2.65;;
46983;SDS011;34732;52.112;9.366;2023-02-01T19:31:15;5.97;;;2.35;;
46983;SDS011;34732;52.112;9.366;2023-02-01T19:34:43;6.07;;;2.30;;
46983;SDS011;34732;52.112;9.366;2023-02-01T19:38:07;9.52;;;2.75;;
46983;SDS011;34732;52.112;9.366;2023-02-01T19:41:30;5.18;;;2.42;;
46983;SDS011;34732;52.112;9.366;2023-02-01T19:44:52;7.40;;;2.45;;
46983;SDS011;34732;52.112;9.366;2023-02-01T19:48:17;10.70;;;2.92;;
46983;SDS011;34732;52.112;9.366;2023-02-01T19:51:41;4.70;;;2.33;;
46983;SDS011;34732;52.112;9.366;2023-02-01T19:55:06;18.98;;;4.03;;
46983;SDS011;34732;52.112;9.366;2023-02-01T19:58:30;10.40;;;2.97;;
46983;SDS011;34732;52.112;9.366;2023-02-01T20:01:56;7.43;;;2.53;;
46983;SDS011;34732;52.112;9.366;2023-02-01T20:05:25;10.77;;;2.65;;
46983;SDS011;34732;52.112;9.366;2023-02-01T20:08:48;8.00;;;2.70;;
